createdAt,value
2017-10-02T00:02:21.639Z,78.40
2017-10-02T00:04:49.289Z,78.50
2017-10-02T00:07:16.872Z,78.50
2017-10-02T00:09:44.495Z,78.60
2017-10-02T00:12:12.058Z,78.60
2017-10-02T00:14:40.527Z,78.60
2017-10-02T00:17:08.889Z,79.20
2017-10-02T00:19:36.443Z,78.60
2017-10-02T00:22:04.440Z,78.20
2017-10-02T00:24:32.175Z,78.30
2017-10-02T00:26:59.735Z,78.10
2017-10-02T00:29:27.328Z,77.80
2017-10-02T00:31:55.673Z,77.40
2017-10-02T00:34:23.443Z,77.40
2017-10-02T00:36:51.808Z,77.40
2017-10-02T00:39:19.401Z,77.40
2017-10-02T00:41:47.057Z,77.60
2017-10-02T00:44:15.559Z,77.70
2017-10-02T00:46:43.608Z,77.60
2017-10-02T00:49:11.203Z,77.70
2017-10-02T00:51:38.759Z,78.00
2017-10-02T00:54:06.375Z,77.80
2017-10-02T00:56:33.945Z,77.80
2017-10-02T00:59:01.891Z,77.60
2017-10-02T01:01:29.654Z,77.90
2017-10-02T01:03:57.243Z,78.00
2017-10-02T01:06:25.611Z,78.20
2017-10-02T01:08:53.192Z,78.10
2017-10-02T01:11:21.084Z,78.10
2017-10-02T01:13:48.651Z,78.70
2017-10-02T01:16:16.223Z,78.70
2017-10-02T01:18:43.840Z,78.70
2017-10-02T01:21:11.391Z,79.50
2017-10-02T01:23:40.091Z,79.40
2017-10-02T01:26:07.890Z,79.40
2017-10-02T01:28:35.433Z,79.50
2017-10-02T01:31:03.050Z,79.10
2017-10-02T01:33:30.609Z,79.40
2017-10-02T01:35:58.575Z,79.60
2017-10-02T01:38:26.119Z,79.70
2017-10-02T01:40:53.681Z,79.80
2017-10-02T01:43:21.383Z,79.60
2017-10-02T01:45:49.774Z,79.40
2017-10-02T01:48:17.684Z,79.30
2017-10-02T01:50:45.521Z,79.60
2017-10-02T01:53:13.084Z,79.60
2017-10-02T01:55:40.689Z,79.90
2017-10-02T01:58:08.284Z,79.80
2017-10-02T02:00:36.214Z,79.90
2017-10-02T02:03:03.776Z,79.90
2017-10-02T02:05:31.335Z,79.70
2017-10-02T02:07:58.949Z,79.50
2017-10-02T02:10:26.495Z,79.50
2017-10-02T02:12:54.287Z,79.90
2017-10-02T02:15:21.879Z,79.60
2017-10-02T02:17:49.504Z,79.80
2017-10-02T02:20:17.114Z,79.80
2017-10-02T02:22:45.460Z,79.80
2017-10-02T02:25:13.439Z,79.80
2017-10-02T02:27:41.037Z,79.70
2017-10-02T02:30:08.626Z,79.70
2017-10-02T02:32:36.231Z,79.70
2017-10-02T02:35:03.849Z,79.60
2017-10-02T02:37:31.734Z,79.70
2017-10-02T02:39:59.291Z,79.70
2017-10-02T02:42:26.853Z,79.70
2017-10-02T02:44:54.533Z,79.50
2017-10-02T02:47:22.102Z,79.60
2017-10-02T02:49:50.072Z,79.60
2017-10-02T02:52:17.625Z,79.60
2017-10-02T02:54:45.198Z,79.60
2017-10-02T02:57:13.782Z,79.50
2017-10-02T02:59:41.397Z,79.50
2017-10-02T03:02:09.387Z,79.50
2017-10-02T03:04:36.952Z,79.60
2017-10-02T03:07:04.508Z,79.50
2017-10-02T03:09:32.126Z,79.50
2017-10-02T03:11:59.690Z,79.50
2017-10-02T03:14:27.544Z,79.50
2017-10-02T03:16:55.118Z,79.50
2017-10-02T03:19:22.674Z,79.50
2017-10-02T03:21:50.466Z,79.50
2017-10-02T03:24:18.025Z,79.50
2017-10-02T03:26:45.806Z,79.50
2017-10-02T03:29:13.351Z,80.00
2017-10-02T03:31:40.913Z,79.50
2017-10-02T03:34:08.550Z,79.50
2017-10-02T03:36:36.107Z,79.50
2017-10-02T03:39:03.720Z,79.50
2017-10-02T03:41:32.046Z,79.40
2017-10-02T03:43:59.603Z,79.30
2017-10-02T03:46:27.236Z,79.40
2017-10-02T03:48:54.847Z,79.40
2017-10-02T03:51:22.455Z,79.40
2017-10-02T03:53:50.791Z,79.40
2017-10-02T03:56:18.368Z,79.40
2017-10-02T03:58:46.212Z,79.30
2017-10-02T04:01:13.777Z,79.30
2017-10-02T04:03:41.743Z,79.30
2017-10-02T04:06:09.350Z,79.30
2017-10-02T04:08:36.959Z,79.30
2017-10-02T04:11:04.586Z,79.30
2017-10-02T04:13:32.151Z,79.30
2017-10-02T04:15:59.773Z,79.30
2017-10-02T04:18:27.346Z,79.30
2017-10-02T04:20:55.668Z,79.30
2017-10-02T04:23:23.268Z,79.20
2017-10-02T04:25:51.599Z,79.30
2017-10-02T04:28:19.292Z,79.20
2017-10-02T04:30:46.860Z,79.20
2017-10-02T04:33:14.431Z,79.20
2017-10-02T04:35:42.028Z,79.20
2017-10-02T04:38:09.588Z,79.20
2017-10-02T04:40:37.686Z,79.20
2017-10-02T04:43:05.261Z,79.10
2017-10-02T04:45:32.831Z,79.10
2017-10-02T04:48:02.266Z,79.10
2017-10-02T04:50:29.840Z,79.10
2017-10-02T04:52:57.739Z,79.10
2017-10-02T04:55:25.318Z,79.10
2017-10-02T04:57:53.007Z,79.10
2017-10-02T05:00:21.372Z,79.10
2017-10-02T05:02:48.982Z,79.20
2017-10-02T05:05:16.849Z,79.50
2017-10-02T05:07:44.404Z,79.60
2017-10-02T05:10:12.824Z,79.50
2017-10-02T05:12:40.410Z,79.50
2017-10-02T05:15:09.028Z,79.60
2017-10-02T05:17:36.651Z,79.40
2017-10-02T05:20:04.214Z,79.40
2017-10-02T05:22:32.553Z,79.20
2017-10-02T05:25:00.150Z,79.10
2017-10-02T05:27:29.066Z,79.10
2017-10-02T05:29:56.707Z,79.10
2017-10-02T05:32:25.070Z,79.30
2017-10-02T05:34:52.655Z,79.30
2017-10-02T05:37:20.263Z,79.30
2017-10-02T05:39:47.859Z,79.40
2017-10-02T05:42:15.760Z,79.40
2017-10-02T05:44:43.340Z,79.20
2017-10-02T05:47:10.915Z,78.90
2017-10-02T05:49:38.511Z,78.80
2017-10-02T05:52:06.065Z,78.70
2017-10-02T05:54:34.435Z,78.20
2017-10-02T05:57:02.009Z,78.20
2017-10-02T05:59:30.327Z,77.80
2017-10-02T06:01:58.128Z,77.80
2017-10-02T06:04:25.695Z,77.80
2017-10-02T06:06:53.331Z,77.60
2017-10-02T06:09:20.906Z,77.20
2017-10-02T06:11:48.476Z,77.20
2017-10-02T06:14:16.104Z,77.00
2017-10-02T06:16:43.679Z,76.80
2017-10-02T06:19:11.794Z,76.70
2017-10-02T06:21:39.342Z,76.60
2017-10-02T06:24:06.887Z,76.40
2017-10-02T06:26:35.277Z,76.30
2017-10-02T06:29:03.007Z,76.30
2017-10-02T06:31:30.840Z,76.40
2017-10-02T06:33:58.503Z,76.50
2017-10-02T06:36:26.065Z,76.70
2017-10-02T06:38:53.683Z,76.60
2017-10-02T06:41:22.025Z,76.70
2017-10-02T06:43:49.651Z,76.70
2017-10-02T06:46:17.182Z,76.60
2017-10-02T06:48:44.728Z,76.50
2017-10-02T06:51:12.339Z,76.40
2017-10-02T06:53:39.896Z,77.00
2017-10-02T06:56:07.504Z,76.10
2017-10-02T06:58:35.080Z,76.20
2017-10-02T07:01:02.630Z,76.30
2017-10-02T07:03:30.223Z,76.30
2017-10-02T07:05:57.781Z,76.50
2017-10-02T07:08:25.399Z,76.30
2017-10-02T07:10:53.083Z,76.30
2017-10-02T07:13:21.410Z,76.40
2017-10-02T07:15:49.006Z,76.40
2017-10-02T07:18:16.617Z,76.40
2017-10-02T07:20:44.725Z,76.40
2017-10-02T07:23:12.296Z,76.40
2017-10-02T07:25:39.871Z,76.40
2017-10-02T07:28:08.363Z,76.50
2017-10-02T07:30:36.695Z,76.50
2017-10-02T07:33:04.334Z,76.50
2017-10-02T07:35:31.898Z,76.50
2017-10-02T07:37:59.475Z,76.60
2017-10-02T07:40:27.075Z,76.60
2017-10-02T07:42:55.395Z,76.70
2017-10-02T07:45:23.119Z,76.70
2017-10-02T07:47:51.471Z,76.80
2017-10-02T07:50:19.052Z,76.70
2017-10-02T07:52:46.697Z,76.80
2017-10-02T07:55:14.274Z,76.90
2017-10-02T07:57:42.694Z,76.40
2017-10-02T08:00:10.321Z,76.40
2017-10-02T08:02:38.673Z,75.80
2017-10-02T08:05:07.092Z,75.90
2017-10-02T08:07:34.670Z,75.60
2017-10-02T08:10:02.316Z,75.20
2017-10-02T08:12:29.908Z,75.00
2017-10-02T08:14:57.508Z,74.80
2017-10-02T08:17:25.104Z,74.80
2017-10-02T08:19:52.686Z,74.50
2017-10-02T08:22:20.376Z,74.40
2017-10-02T08:24:47.950Z,74.60
2017-10-02T08:27:15.611Z,74.10
2017-10-02T08:29:43.280Z,73.20
2017-10-02T08:32:10.843Z,72.60
2017-10-02T08:34:39.283Z,72.00
2017-10-02T08:37:06.828Z,71.80
2017-10-02T08:39:35.161Z,71.50
2017-10-02T08:42:02.783Z,71.60
2017-10-02T08:44:30.375Z,70.90
2017-10-02T08:46:58.782Z,70.80
2017-10-02T08:49:26.406Z,70.70
2017-10-02T08:51:53.971Z,70.70
2017-10-02T08:54:22.363Z,70.50
2017-10-02T08:56:50.564Z,70.50
2017-10-02T08:59:18.186Z,69.90
2017-10-02T09:01:46.497Z,69.90
2017-10-02T09:04:14.094Z,69.30
2017-10-02T09:06:41.700Z,69.00
2017-10-02T09:09:09.332Z,69.00
2017-10-02T09:11:36.972Z,69.10
2017-10-02T09:14:04.546Z,68.80
2017-10-02T09:16:33.016Z,69.00
2017-10-02T09:19:00.637Z,68.80
2017-10-02T09:21:28.196Z,68.80
2017-10-02T09:23:55.821Z,68.20
2017-10-02T09:26:24.174Z,67.60
2017-10-02T09:28:51.743Z,67.50
2017-10-02T09:31:19.380Z,67.20
2017-10-02T09:33:47.748Z,67.30
2017-10-02T09:36:15.393Z,67.30
2017-10-02T09:38:42.944Z,67.30
2017-10-02T09:41:10.495Z,67.20
2017-10-02T09:43:38.864Z,67.10
2017-10-02T09:46:06.474Z,67.00
2017-10-02T09:48:34.076Z,66.90
2017-10-02T09:51:02.397Z,66.80
2017-10-02T09:53:29.955Z,66.80
2017-10-02T09:55:57.563Z,66.80
2017-10-02T09:58:25.124Z,66.80
2017-10-02T10:00:52.780Z,66.70
2017-10-02T10:03:20.327Z,66.80
2017-10-02T10:05:47.881Z,66.80
2017-10-02T10:08:15.487Z,66.70
2017-10-02T10:10:43.039Z,66.70
2017-10-02T10:13:12.195Z,67.10
2017-10-02T10:15:39.818Z,67.00
2017-10-02T10:18:07.746Z,66.70
2017-10-02T10:20:35.403Z,66.40
2017-10-02T10:23:02.948Z,66.00
2017-10-02T10:25:31.032Z,65.70
2017-10-02T10:27:59.598Z,65.40
2017-10-02T10:30:27.180Z,65.00
2017-10-02T10:32:54.830Z,65.10
2017-10-02T10:35:22.413Z,64.70
2017-10-02T10:37:50.130Z,64.90
2017-10-02T10:40:17.683Z,64.90
2017-10-02T10:42:45.222Z,64.60
2017-10-02T10:45:13.390Z,64.40
2017-10-02T10:47:41.880Z,64.80
2017-10-02T10:50:09.607Z,65.00
2017-10-02T10:52:38.791Z,65.10
2017-10-02T10:55:07.148Z,65.00
2017-10-02T10:57:34.761Z,64.80
2017-10-02T11:00:03.201Z,64.30
2017-10-02T11:02:30.806Z,64.20
2017-10-02T11:04:58.383Z,64.10
2017-10-02T11:07:25.935Z,64.40
2017-10-02T11:09:53.596Z,64.50
2017-10-02T11:12:21.160Z,64.60
2017-10-02T11:14:48.776Z,64.30
2017-10-02T11:17:16.337Z,64.50
2017-10-02T11:19:43.911Z,64.50
2017-10-02T11:22:12.302Z,64.30
2017-10-02T11:24:39.925Z,64.30
2017-10-02T11:27:07.579Z,63.80
2017-10-02T11:29:35.382Z,64.00
2017-10-02T11:32:03.751Z,64.50
2017-10-02T11:34:31.338Z,64.50
2017-10-02T11:36:58.909Z,64.40
2017-10-02T11:39:26.514Z,64.40
2017-10-02T11:41:54.078Z,64.60
2017-10-02T11:44:21.628Z,64.70
2017-10-02T11:46:49.252Z,64.30
2017-10-02T11:49:16.859Z,64.50
2017-10-02T11:51:44.484Z,64.50
2017-10-02T11:54:12.072Z,64.20
2017-10-02T11:56:39.663Z,63.90
2017-10-02T11:59:08.065Z,63.20
2017-10-02T12:01:35.654Z,63.20
2017-10-02T12:04:03.385Z,63.50
2017-10-02T12:06:30.948Z,63.50
2017-10-02T12:08:58.520Z,63.60
2017-10-02T12:11:26.126Z,63.00
2017-10-02T12:13:53.683Z,63.50
2017-10-02T12:16:21.300Z,63.40
2017-10-02T12:18:48.867Z,63.50
2017-10-02T12:21:16.422Z,63.00
2017-10-02T12:23:44.030Z,63.20
2017-10-02T12:26:11.952Z,63.40
2017-10-02T12:28:39.643Z,63.40
2017-10-02T12:31:07.233Z,63.60
2017-10-02T12:33:34.932Z,64.00
2017-10-02T12:36:02.558Z,64.00
2017-10-02T12:38:30.132Z,64.00
2017-10-02T12:40:57.915Z,64.30
2017-10-02T12:43:25.511Z,64.50
2017-10-02T12:45:53.075Z,64.60
2017-10-02T12:48:21.331Z,64.70
2017-10-02T12:50:48.890Z,65.10
2017-10-02T12:53:16.671Z,65.40
2017-10-02T12:55:44.697Z,65.60
2017-10-02T12:58:12.260Z,65.90
2017-10-02T13:00:39.859Z,66.20
2017-10-02T13:03:07.458Z,66.80
2017-10-02T13:05:35.044Z,66.70
2017-10-02T13:08:02.648Z,66.90
2017-10-02T13:10:30.258Z,67.30
2017-10-02T13:12:57.857Z,68.00
2017-10-02T13:15:25.426Z,68.50
2017-10-02T13:17:53.050Z,68.60
2017-10-02T13:20:20.626Z,70.50
2017-10-02T13:22:48.205Z,70.90
2017-10-02T13:25:15.859Z,70.80
2017-10-02T13:27:44.832Z,71.20
2017-10-02T13:30:12.394Z,71.20
2017-10-02T13:32:40.016Z,72.10
2017-10-02T13:35:07.584Z,71.90
2017-10-02T13:37:35.373Z,72.10
2017-10-02T13:40:02.998Z,72.70
2017-10-02T13:42:30.617Z,72.70
2017-10-02T13:44:58.200Z,72.70
2017-10-02T13:47:25.805Z,73.00
2017-10-02T13:49:54.266Z,73.20
2017-10-02T13:52:21.912Z,73.60
2017-10-02T13:54:49.453Z,74.10
2017-10-02T13:57:17.001Z,74.30
2017-10-02T13:59:44.598Z,74.70
2017-10-02T14:02:12.922Z,75.40
2017-10-02T14:04:40.567Z,75.30
2017-10-02T14:07:08.162Z,75.80
2017-10-02T14:09:35.761Z,76.30
2017-10-02T14:12:03.391Z,76.60
2017-10-02T14:14:31.007Z,76.50
2017-10-02T14:16:58.771Z,76.70
2017-10-02T14:19:26.336Z,76.80
2017-10-02T14:21:53.979Z,77.00
2017-10-02T14:24:21.603Z,76.90
2017-10-02T14:26:49.168Z,77.40
2017-10-02T14:29:17.616Z,77.40
2017-10-02T14:31:45.208Z,77.30
2017-10-02T14:34:12.814Z,78.00
2017-10-02T14:36:40.419Z,78.60
2017-10-02T14:39:07.975Z,79.00
2017-10-02T14:41:35.594Z,80.90
2017-10-02T14:44:03.226Z,80.70
2017-10-02T14:46:30.794Z,82.90
2017-10-02T14:48:58.408Z,83.10
2017-10-02T14:51:26.039Z,83.00
2017-10-02T14:53:55.083Z,84.50
2017-10-02T14:56:22.635Z,84.30
2017-10-02T14:58:50.249Z,85.10
2017-10-02T15:01:18.540Z,86.00
2017-10-02T15:03:46.251Z,86.40
2017-10-02T15:06:14.654Z,87.10
2017-10-02T15:08:42.226Z,87.00
2017-10-02T15:11:09.880Z,87.90
2017-10-02T15:13:37.565Z,88.20
2017-10-02T15:16:05.222Z,87.10
2017-10-02T15:18:32.897Z,87.80
2017-10-02T15:21:00.451Z,88.00
2017-10-02T15:23:28.003Z,87.80
2017-10-02T15:25:55.631Z,87.70
2017-10-02T15:28:24.035Z,87.90
2017-10-02T15:30:51.986Z,87.90
2017-10-02T15:33:19.635Z,88.10
2017-10-02T15:35:47.248Z,88.30
2017-10-02T15:38:14.898Z,87.40
2017-10-02T15:40:42.544Z,87.80
2017-10-02T15:43:10.851Z,87.40
2017-10-02T15:45:39.265Z,87.30
2017-10-02T15:48:08.056Z,88.00
2017-10-02T15:50:36.428Z,87.40
2017-10-02T15:53:03.991Z,87.30
2017-10-02T15:55:32.372Z,87.00
2017-10-02T15:57:59.922Z,87.00
2017-10-02T16:00:27.478Z,87.00
2017-10-02T16:02:55.086Z,87.60
2017-10-02T16:05:22.645Z,87.00
2017-10-02T16:07:50.307Z,87.00
2017-10-02T16:10:17.899Z,86.90
2017-10-02T16:12:45.465Z,86.80
2017-10-02T16:15:13.182Z,87.30
2017-10-02T16:17:41.706Z,87.40
2017-10-02T16:20:09.400Z,87.60
2017-10-02T16:22:37.898Z,87.70
2017-10-02T16:25:05.492Z,87.60
2017-10-02T16:27:33.112Z,87.60
2017-10-02T16:30:00.736Z,87.60
2017-10-02T16:32:28.471Z,87.70
2017-10-02T16:34:56.684Z,86.80
2017-10-02T16:37:24.279Z,87.90
2017-10-02T16:39:51.917Z,88.20
2017-10-02T16:42:19.496Z,87.90
2017-10-02T16:44:47.168Z,88.10
2017-10-02T16:47:14.770Z,88.20
2017-10-02T16:49:42.339Z,88.20
2017-10-02T16:52:10.033Z,87.90
2017-10-02T16:54:37.607Z,88.50
2017-10-02T16:57:05.539Z,88.80
2017-10-02T16:59:33.171Z,88.80
2017-10-02T17:02:00.750Z,88.90
2017-10-02T17:04:28.370Z,88.80
2017-10-02T17:06:55.947Z,88.90
2017-10-02T17:09:23.547Z,88.80
2017-10-02T17:11:51.151Z,89.00
2017-10-02T17:14:19.941Z,88.90
2017-10-02T17:16:47.498Z,88.20
2017-10-02T17:19:16.558Z,88.30
2017-10-02T17:21:44.154Z,88.10
2017-10-02T17:24:11.728Z,88.00
2017-10-02T17:26:39.405Z,88.70
2017-10-02T17:29:07.007Z,89.00
2017-10-02T17:31:34.610Z,88.90
2017-10-02T17:34:02.649Z,89.00
2017-10-02T17:36:30.231Z,88.40
2017-10-02T17:38:57.863Z,88.40
2017-10-02T17:41:25.479Z,88.60
2017-10-02T17:43:53.053Z,88.20
2017-10-02T17:46:21.470Z,87.80
2017-10-02T17:48:49.203Z,88.40
2017-10-02T17:51:17.952Z,88.40
2017-10-02T17:53:45.523Z,88.50
2017-10-02T17:56:13.140Z,87.90
2017-10-02T17:58:40.756Z,88.30
2017-10-02T18:01:08.352Z,88.30
2017-10-02T18:03:37.220Z,88.90
2017-10-02T18:06:04.797Z,88.70
2017-10-02T18:08:32.367Z,89.10
2017-10-02T18:10:59.996Z,88.40
2017-10-02T18:13:27.587Z,88.30
2017-10-02T18:15:55.187Z,88.20
2017-10-02T18:18:22.775Z,88.30
2017-10-02T18:20:50.368Z,88.50
2017-10-02T18:23:18.000Z,88.20
2017-10-02T18:25:46.429Z,88.20
2017-10-02T18:28:14.035Z,87.80
2017-10-02T18:30:44.059Z,87.50
2017-10-02T18:33:11.663Z,87.80
2017-10-02T18:35:40.043Z,88.30
2017-10-02T18:38:07.598Z,88.10
2017-10-02T18:40:35.575Z,88.00
2017-10-02T18:43:03.184Z,88.10
2017-10-02T18:45:30.800Z,88.50
2017-10-02T18:47:58.490Z,88.60
2017-10-02T18:50:27.031Z,88.70
2017-10-02T18:52:54.973Z,88.60
2017-10-02T18:55:23.375Z,88.90
2017-10-02T18:57:50.968Z,88.80
2017-10-02T19:00:18.652Z,89.00
2017-10-02T19:02:46.235Z,89.20
2017-10-02T19:05:14.915Z,88.90
2017-10-02T19:07:43.248Z,89.30
2017-10-02T19:10:10.836Z,89.20
2017-10-02T19:12:38.434Z,89.30
2017-10-02T19:15:06.027Z,89.60
2017-10-02T19:17:33.623Z,89.20
2017-10-02T19:20:01.184Z,89.00
2017-10-02T19:22:28.872Z,89.10
2017-10-02T19:24:56.560Z,89.30
2017-10-02T19:27:24.143Z,89.10
2017-10-02T19:29:51.791Z,89.20
2017-10-02T19:32:19.398Z,89.10
2017-10-02T19:34:47.836Z,89.10
2017-10-02T19:37:15.449Z,89.10
2017-10-02T19:39:43.817Z,89.20
2017-10-02T19:42:12.189Z,89.40
2017-10-02T19:44:39.753Z,89.40
2017-10-02T19:47:07.375Z,89.00
2017-10-02T19:49:34.975Z,89.00
2017-10-02T19:52:02.655Z,88.60
2017-10-02T19:54:30.253Z,88.70
2017-10-02T19:56:57.836Z,89.00
2017-10-02T19:59:25.559Z,89.30
2017-10-02T20:01:53.169Z,89.20
2017-10-02T20:04:20.768Z,88.80
2017-10-02T20:06:48.398Z,88.70
2017-10-02T20:09:15.976Z,88.80
2017-10-02T20:11:44.354Z,89.40
2017-10-02T20:14:11.957Z,89.40
2017-10-02T20:16:39.514Z,89.60
2017-10-02T20:19:07.175Z,89.60
2017-10-02T20:21:34.781Z,89.20
2017-10-02T20:24:02.488Z,89.10
2017-10-02T20:26:30.079Z,89.70
2017-10-02T20:28:57.812Z,89.40
2017-10-02T20:31:25.370Z,89.40
2017-10-02T20:33:52.991Z,89.40
2017-10-02T20:36:21.343Z,89.30
2017-10-02T20:38:48.908Z,89.30
2017-10-02T20:41:16.525Z,89.30
2017-10-02T20:43:44.099Z,89.10
2017-10-02T20:46:11.966Z,89.10
2017-10-02T20:48:39.545Z,89.50
2017-10-02T20:51:07.141Z,89.30
2017-10-02T20:53:34.783Z,88.80
2017-10-02T20:56:02.379Z,89.10
2017-10-02T20:58:30.401Z,89.10
2017-10-02T21:00:57.993Z,89.00
2017-10-02T21:03:26.203Z,89.00
2017-10-02T21:05:53.832Z,89.10
2017-10-02T21:08:22.181Z,89.10
2017-10-02T21:10:49.803Z,89.00
2017-10-02T21:13:17.375Z,89.30
2017-10-02T21:15:45.002Z,89.40
2017-10-02T21:18:12.615Z,89.40
2017-10-02T21:20:40.190Z,89.20
2017-10-02T21:23:07.854Z,89.10
2017-10-02T21:25:35.397Z,89.00
2017-10-02T21:28:02.969Z,88.80
2017-10-02T21:30:30.569Z,88.90
2017-10-02T21:32:58.129Z,89.00
2017-10-02T21:35:25.996Z,88.80
2017-10-02T21:37:53.570Z,89.00
2017-10-02T21:40:21.152Z,89.20
2017-10-02T21:42:48.762Z,89.30
2017-10-02T21:45:17.090Z,89.20
2017-10-02T21:47:45.908Z,89.10
2017-10-02T21:50:13.467Z,89.10
2017-10-02T21:52:41.030Z,89.10
2017-10-02T21:55:08.659Z,89.10
2017-10-02T21:57:36.291Z,89.10
2017-10-02T22:00:03.903Z,89.40
2017-10-02T22:02:31.501Z,89.50
2017-10-02T22:04:59.944Z,90.00
2017-10-02T22:07:27.576Z,89.90
2017-10-02T22:09:55.143Z,89.90
2017-10-02T22:12:23.120Z,90.00
2017-10-02T22:14:50.667Z,89.80
2017-10-02T22:17:18.243Z,89.50
2017-10-02T22:19:45.843Z,89.40
2017-10-02T22:22:13.427Z,89.70
2017-10-02T22:24:41.043Z,89.60
2017-10-02T22:27:10.415Z,89.40
2017-10-02T22:29:39.019Z,89.40
2017-10-02T22:32:06.619Z,90.00
2017-10-02T22:34:34.178Z,89.40
2017-10-02T22:37:01.821Z,89.30
2017-10-02T22:39:30.163Z,89.30
2017-10-02T22:41:57.723Z,89.30
2017-10-02T22:44:25.430Z,89.30
2017-10-02T22:46:53.192Z,89.40
2017-10-02T22:49:21.877Z,89.30
2017-10-02T22:51:51.007Z,89.20
2017-10-02T22:54:18.583Z,89.20
2017-10-02T22:56:46.191Z,89.20
2017-10-02T22:59:14.261Z,89.10
2017-10-02T23:01:42.639Z,89.00
2017-10-02T23:04:10.207Z,89.00
2017-10-02T23:06:37.871Z,88.90
2017-10-02T23:09:05.503Z,88.80
2017-10-02T23:11:33.084Z,88.70
2017-10-02T23:14:00.718Z,88.80
2017-10-02T23:16:28.934Z,88.80
2017-10-02T23:18:58.231Z,88.60
2017-10-02T23:21:26.619Z,89.30
2017-10-02T23:23:54.930Z,88.80
2017-10-02T23:26:22.544Z,88.80
2017-10-02T23:28:50.113Z,88.80
2017-10-02T23:31:18.458Z,89.20
2017-10-02T23:33:46.058Z,89.10
2017-10-02T23:36:14.419Z,89.10
2017-10-02T23:38:42.421Z,89.10
2017-10-02T23:41:09.999Z,89.10
2017-10-02T23:43:37.558Z,88.90
2017-10-02T23:46:05.144Z,88.50
2017-10-02T23:48:32.768Z,88.50
2017-10-02T23:51:00.455Z,88.50
2017-10-02T23:53:28.375Z,88.80
2017-10-02T23:55:56.720Z,89.00
2017-10-02T23:58:24.301Z,89.00
